logo
Search for airport 
image banner adimage banner adimage banner ad
image banner ad

EPSS - Swidnica-Krzczonow

Located in , Poland

ICAO - , IATA -

Data provided by Airmate  

General information

Coordinates: N50°49'2" E16°34'56"
Elevation is 819 feet MSL.
 
View others Airports in Lower Silesia

Operational data

Special qualification required
Current time UTC:
Current local time:
Weather at : EPWR - Wroclaw/Strachowice ( 38 km )
METAR: EPWR 231730Z 15008KT CAVOK 08/04 Q1002
TAF: TAF EPWR 231730Z 2318/2418 VRB02KT 9999 FEW045 BECMG 2319/2322 BKN012 TEMPO 2322/2404 4000 RA BR BKN003 OVC006 BECMG 2400/2403 29010KT BECMG 2409/2412 21006KT CAVOK
View NOTAMs / SUP AIP / TFR affecting this airport [VIEW]
Communications frequencies: [VIEW]

Runways:

Airport contact information

Address: Poland

Satellite view of EPSS